sensor_id;sensor_type;location;lat;lon;timestamp;temperature;humidity
20866;DHT22;10593;48.398;10.698;2023-03-07T00:01:26;6.40;48.30
20866;DHT22;10593;48.398;10.698;2023-03-07T00:03:54;6.40;48.40
20866;DHT22;10593;48.398;10.698;2023-03-07T00:06:20;6.40;48.40
20866;DHT22;10593;48.398;10.698;2023-03-07T00:08:54;6.40;48.40
20866;DHT22;10593;48.398;10.698;2023-03-07T00:11:22;6.40;48.40
20866;DHT22;10593;48.398;10.698;2023-03-07T00:13:48;6.40;48.40
20866;DHT22;10593;48.398;10.698;2023-03-07T00:16:16;6.30;48.30
20866;DHT22;10593;48.398;10.698;2023-03-07T00:18:43;6.30;48.30
20866;DHT22;10593;48.398;10.698;2023-03-07T00:21:11;6.30;48.30
20866;DHT22;10593;48.398;10.698;2023-03-07T00:23:40;6.30;48.30
20866;DHT22;10593;48.398;10.698;2023-03-07T00:26:12;6.30;48.30
20866;DHT22;10593;48.398;10.698;2023-03-07T00:28:44;6.30;48.30
20866;DHT22;10593;48.398;10.698;2023-03-07T00:31:12;6.30;48.30
20866;DHT22;10593;48.398;10.698;2023-03-07T00:33:38;6.30;48.30
20866;DHT22;10593;48.398;10.698;2023-03-07T00:36:06;6.30;48.30
20866;DHT22;10593;48.398;10.698;2023-03-07T00:38:35;6.30;48.30
20866;DHT22;10593;48.398;10.698;2023-03-07T00:41:06;6.30;48.30
20866;DHT22;10593;48.398;10.698;2023-03-07T00:43:34;6.30;48.30
20866;DHT22;10593;48.398;10.698;2023-03-07T00:46:01;6.30;48.30
20866;DHT22;10593;48.398;10.698;2023-03-07T00:48:28;6.30;48.30
20866;DHT22;10593;48.398;10.698;2023-03-07T00:50:54;6.30;48.30
20866;DHT22;10593;48.398;10.698;2023-03-07T00:53:21;6.30;48.30
20866;DHT22;10593;48.398;10.698;2023-03-07T00:55:58;6.30;48.30
20866;DHT22;10593;48.398;10.698;2023-03-07T00:58:25;6.30;48.30
20866;DHT22;10593;48.398;10.698;2023-03-07T01:00:53;6.30;48.30
20866;DHT22;10593;48.398;10.698;2023-03-07T01:03:20;6.30;48.30
20866;DHT22;10593;48.398;10.698;2023-03-07T01:05:45;6.30;48.30
20866;DHT22;10593;48.398;10.698;2023-03-07T01:08:12;6.30;48.30
20866;DHT22;10593;48.398;10.698;2023-03-07T01:10:38;6.30;48.40
20866;DHT22;10593;48.398;10.698;2023-03-07T01:13:04;6.20;48.30
20866;DHT22;10593;48.398;10.698;2023-03-07T01:15:30;6.30;48.40
20866;DHT22;10593;48.398;10.698;2023-03-07T01:17:57;6.20;48.30
20866;DHT22;10593;48.398;10.698;2023-03-07T01:20:23;6.20;48.30
20866;DHT22;10593;48.398;10.698;2023-03-07T01:22:49;6.30;48.40
20866;DHT22;10593;48.398;10.698;2023-03-07T01:25:14;6.20;48.30
20866;DHT22;10593;48.398;10.698;2023-03-07T01:27:40;6.20;48.30
20866;DHT22;10593;48.398;10.698;2023-03-07T01:30:06;6.20;48.30
20866;DHT22;10593;48.398;10.698;2023-03-07T01:32:33;6.20;48.30
20866;DHT22;10593;48.398;10.698;2023-03-07T01:34:59;6.20;48.30
20866;DHT22;10593;48.398;10.698;2023-03-07T01:37:25;6.20;48.30
20866;DHT22;10593;48.398;10.698;2023-03-07T01:39:54;6.20;48.30
20866;DHT22;10593;48.398;10.698;2023-03-07T01:42:20;6.20;48.40
20866;DHT22;10593;48.398;10.698;2023-03-07T01:45:00;6.20;48.40
20866;DHT22;10593;48.398;10.698;2023-03-07T01:47:30;6.20;49.00
20866;DHT22;10593;48.398;10.698;2023-03-07T01:49:58;6.20;48.40
20866;DHT22;10593;48.398;10.698;2023-03-07T01:52:33;6.20;48.40
20866;DHT22;10593;48.398;10.698;2023-03-07T01:55:06;6.20;48.40
20866;DHT22;10593;48.398;10.698;2023-03-07T01:57:41;6.20;48.40
20866;DHT22;10593;48.398;10.698;2023-03-07T02:00:12;6.20;48.40
20866;DHT22;10593;48.398;10.698;2023-03-07T02:02:46;6.20;48.40
20866;DHT22;10593;48.398;10.698;2023-03-07T02:05:20;6.20;48.50
20866;DHT22;10593;48.398;10.698;2023-03-07T02:07:50;6.20;48.50
20866;DHT22;10593;48.398;10.698;2023-03-07T02:10:19;6.20;48.50
20866;DHT22;10593;48.398;10.698;2023-03-07T02:12:46;6.20;48.50
20866;DHT22;10593;48.398;10.698;2023-03-07T02:15:13;6.20;48.60
20866;DHT22;10593;48.398;10.698;2023-03-07T02:17:42;6.10;48.50
20866;DHT22;10593;48.398;10.698;2023-03-07T02:23:03;6.10;48.50
20866;DHT22;10593;48.398;10.698;2023-03-07T02:25:46;6.20;48.60
20866;DHT22;10593;48.398;10.698;2023-03-07T02:28:18;6.10;48.50
20866;DHT22;10593;48.398;10.698;2023-03-07T02:30:54;6.10;48.50
20866;DHT22;10593;48.398;10.698;2023-03-07T02:33:25;6.10;48.50
20866;DHT22;10593;48.398;10.698;2023-03-07T02:35:56;6.10;48.50
20866;DHT22;10593;48.398;10.698;2023-03-07T02:38:26;6.10;48.40
20866;DHT22;10593;48.398;10.698;2023-03-07T02:40:54;6.10;48.40
20866;DHT22;10593;48.398;10.698;2023-03-07T02:43:21;6.10;48.40
20866;DHT22;10593;48.398;10.698;2023-03-07T02:45:47;6.10;48.40
20866;DHT22;10593;48.398;10.698;2023-03-07T02:48:13;6.10;48.40
20866;DHT22;10593;48.398;10.698;2023-03-07T02:50:38;6.10;48.40
20866;DHT22;10593;48.398;10.698;2023-03-07T02:53:04;6.10;48.40
20866;DHT22;10593;48.398;10.698;2023-03-07T02:55:30;6.10;48.40
20866;DHT22;10593;48.398;10.698;2023-03-07T02:57:56;6.10;48.40
20866;DHT22;10593;48.398;10.698;2023-03-07T03:00:22;6.10;48.40
20866;DHT22;10593;48.398;10.698;2023-03-07T03:02:47;6.10;48.40
20866;DHT22;10593;48.398;10.698;2023-03-07T03:05:13;6.10;48.30
20866;DHT22;10593;48.398;10.698;2023-03-07T03:07:39;6.10;48.30
20866;DHT22;10593;48.398;10.698;2023-03-07T03:10:05;6.10;48.30
20866;DHT22;10593;48.398;10.698;2023-03-07T03:12:31;6.10;48.20
20866;DHT22;10593;48.398;10.698;2023-03-07T03:14:57;6.10;48.20
20866;DHT22;10593;48.398;10.698;2023-03-07T03:17:22;6.10;48.20
20866;DHT22;10593;48.398;10.698;2023-03-07T03:19:48;6.10;48.20
20866;DHT22;10593;48.398;10.698;2023-03-07T03:22:14;6.00;48.10
20866;DHT22;10593;48.398;10.698;2023-03-07T03:24:41;6.10;48.20
20866;DHT22;10593;48.398;10.698;2023-03-07T03:27:07;6.10;48.20
20866;DHT22;10593;48.398;10.698;2023-03-07T03:29:33;6.10;48.20
20866;DHT22;10593;48.398;10.698;2023-03-07T03:31:59;6.10;48.20
20866;DHT22;10593;48.398;10.698;2023-03-07T03:34:25;6.00;48.70
20866;DHT22;10593;48.398;10.698;2023-03-07T03:36:51;6.00;48.10
20866;DHT22;10593;48.398;10.698;2023-03-07T03:39:17;6.00;48.10
20866;DHT22;10593;48.398;10.698;2023-03-07T03:41:43;6.00;48.10
20866;DHT22;10593;48.398;10.698;2023-03-07T03:44:09;6.10;48.10
20866;DHT22;10593;48.398;10.698;2023-03-07T03:46:35;6.00;48.00
20866;DHT22;10593;48.398;10.698;2023-03-07T03:49:01;6.00;48.00
20866;DHT22;10593;48.398;10.698;2023-03-07T03:51:28;6.00;47.90
20866;DHT22;10593;48.398;10.698;2023-03-07T03:53:54;6.00;47.90
20866;DHT22;10593;48.398;10.698;2023-03-07T03:56:23;6.00;47.90
20866;DHT22;10593;48.398;10.698;2023-03-07T03:58:51;6.00;47.90
20866;DHT22;10593;48.398;10.698;2023-03-07T04:01:19;6.00;47.80
20866;DHT22;10593;48.398;10.698;2023-03-07T04:03:48;6.00;47.90
20866;DHT22;10593;48.398;10.698;2023-03-07T04:06:17;6.00;47.90
20866;DHT22;10593;48.398;10.698;2023-03-07T04:08:45;6.00;47.80
20866;DHT22;10593;48.398;10.698;2023-03-07T04:11:12;6.00;47.90
20866;DHT22;10593;48.398;10.698;2023-03-07T04:13:38;6.00;47.80
20866;DHT22;10593;48.398;10.698;2023-03-07T04:16:04;6.00;47.90
20866;DHT22;10593;48.398;10.698;2023-03-07T04:18:30;5.90;47.80
20866;DHT22;10593;48.398;10.698;2023-03-07T04:20:56;6.00;47.90
20866;DHT22;10593;48.398;10.698;2023-03-07T04:23:23;5.90;47.80
20866;DHT22;10593;48.398;10.698;2023-03-07T04:25:54;5.90;47.80
20866;DHT22;10593;48.398;10.698;2023-03-07T04:28:27;5.90;47.80
20866;DHT22;10593;48.398;10.698;2023-03-07T04:31:20;5.90;47.80
20866;DHT22;10593;48.398;10.698;2023-03-07T04:33:47;5.90;47.80
20866;DHT22;10593;48.398;10.698;2023-03-07T04:36:14;5.90;47.80
20866;DHT22;10593;48.398;10.698;2023-03-07T04:38:41;5.90;47.80
20866;DHT22;10593;48.398;10.698;2023-03-07T04:41:09;5.90;47.80
20866;DHT22;10593;48.398;10.698;2023-03-07T04:43:38;5.90;47.80
20866;DHT22;10593;48.398;10.698;2023-03-07T04:46:04;5.90;47.80
20866;DHT22;10593;48.398;10.698;2023-03-07T04:48:30;5.90;47.70
20866;DHT22;10593;48.398;10.698;2023-03-07T04:50:56;5.90;47.70
20866;DHT22;10593;48.398;10.698;2023-03-07T04:53:21;5.90;47.60
20866;DHT22;10593;48.398;10.698;2023-03-07T04:55:47;5.90;47.60
20866;DHT22;10593;48.398;10.698;2023-03-07T04:58:13;5.90;47.60
20866;DHT22;10593;48.398;10.698;2023-03-07T05:00:44;5.80;47.50
20866;DHT22;10593;48.398;10.698;2023-03-07T05:03:11;5.90;47.60
20866;DHT22;10593;48.398;10.698;2023-03-07T05:05:38;5.80;47.50
20866;DHT22;10593;48.398;10.698;2023-03-07T05:08:04;5.80;47.40
20866;DHT22;10593;48.398;10.698;2023-03-07T05:10:31;5.80;47.50
20866;DHT22;10593;48.398;10.698;2023-03-07T05:12:58;5.80;47.40
20866;DHT22;10593;48.398;10.698;2023-03-07T05:15:24;5.80;47.50
20866;DHT22;10593;48.398;10.698;2023-03-07T05:17:50;5.80;47.50
20866;DHT22;10593;48.398;10.698;2023-03-07T05:20:16;5.80;47.50
20866;DHT22;10593;48.398;10.698;2023-03-07T05:22:42;5.80;47.50
20866;DHT22;10593;48.398;10.698;2023-03-07T05:25:08;5.80;47.50
20866;DHT22;10593;48.398;10.698;2023-03-07T05:27:34;5.80;47.50
20866;DHT22;10593;48.398;10.698;2023-03-07T05:30:00;5.80;47.50
20866;DHT22;10593;48.398;10.698;2023-03-07T05:32:26;5.80;47.50
20866;DHT22;10593;48.398;10.698;2023-03-07T05:34:51;5.80;47.50
20866;DHT22;10593;48.398;10.698;2023-03-07T05:37:17;5.80;47.50
20866;DHT22;10593;48.398;10.698;2023-03-07T05:39:43;5.80;47.50
20866;DHT22;10593;48.398;10.698;2023-03-07T05:42:08;5.80;47.50
20866;DHT22;10593;48.398;10.698;2023-03-07T05:44:34;5.80;47.50
20866;DHT22;10593;48.398;10.698;2023-03-07T05:47:00;5.70;47.50
20866;DHT22;10593;48.398;10.698;2023-03-07T05:49:25;5.70;47.50
20866;DHT22;10593;48.398;10.698;2023-03-07T05:51:51;5.70;47.50
20866;DHT22;10593;48.398;10.698;2023-03-07T05:54:17;5.70;47.50
20866;DHT22;10593;48.398;10.698;2023-03-07T05:56:42;5.70;47.50
20866;DHT22;10593;48.398;10.698;2023-03-07T05:59:08;5.70;47.50
20866;DHT22;10593;48.398;10.698;2023-03-07T06:01:37;5.70;47.50
20866;DHT22;10593;48.398;10.698;2023-03-07T06:04:03;5.70;47.50
20866;DHT22;10593;48.398;10.698;2023-03-07T06:06:29;5.70;47.60
20866;DHT22;10593;48.398;10.698;2023-03-07T06:08:54;5.70;47.50
20866;DHT22;10593;48.398;10.698;2023-03-07T06:11:20;5.70;47.60
20866;DHT22;10593;48.398;10.698;2023-03-07T06:13:46;5.70;47.60
20866;DHT22;10593;48.398;10.698;2023-03-07T06:16:11;5.70;47.60
20866;DHT22;10593;48.398;10.698;2023-03-07T06:18:37;5.70;47.60
20866;DHT22;10593;48.398;10.698;2023-03-07T06:21:04;5.70;47.60
20866;DHT22;10593;48.398;10.698;2023-03-07T06:23:33;5.70;47.60
20866;DHT22;10593;48.398;10.698;2023-03-07T06:26:01;5.70;47.70
20866;DHT22;10593;48.398;10.698;2023-03-07T06:28:28;5.70;47.70
20866;DHT22;10593;48.398;10.698;2023-03-07T06:30:54;5.70;47.70
20866;DHT22;10593;48.398;10.698;2023-03-07T06:33:19;5.70;47.70
20866;DHT22;10593;48.398;10.698;2023-03-07T06:35:45;5.70;47.70
20866;DHT22;10593;48.398;10.698;2023-03-07T06:38:13;5.70;47.70
20866;DHT22;10593;48.398;10.698;2023-03-07T06:40:40;5.70;47.70
20866;DHT22;10593;48.398;10.698;2023-03-07T06:43:07;5.70;47.70
20866;DHT22;10593;48.398;10.698;2023-03-07T06:45:33;5.70;47.70
20866;DHT22;10593;48.398;10.698;2023-03-07T06:47:58;5.70;47.70
20866;DHT22;10593;48.398;10.698;2023-03-07T06:50:24;5.70;47.70
20866;DHT22;10593;48.398;10.698;2023-03-07T06:52:50;5.70;47.80
20866;DHT22;10593;48.398;10.698;2023-03-07T06:55:17;5.70;47.80
20866;DHT22;10593;48.398;10.698;2023-03-07T06:57:43;5.70;47.80
20866;DHT22;10593;48.398;10.698;2023-03-07T07:00:10;5.70;47.80
20866;DHT22;10593;48.398;10.698;2023-03-07T07:02:36;5.80;47.90
20866;DHT22;10593;48.398;10.698;2023-03-07T07:05:02;5.70;47.80
20866;DHT22;10593;48.398;10.698;2023-03-07T07:07:28;5.80;47.80
20866;DHT22;10593;48.398;10.698;2023-03-07T07:09:54;5.80;47.80
20866;DHT22;10593;48.398;10.698;2023-03-07T07:12:19;5.80;47.80
20866;DHT22;10593;48.398;10.698;2023-03-07T07:14:45;5.80;47.80
20866;DHT22;10593;48.398;10.698;2023-03-07T07:17:12;5.80;47.80
20866;DHT22;10593;48.398;10.698;2023-03-07T07:19:38;5.80;47.80
20866;DHT22;10593;48.398;10.698;2023-03-07T07:22:03;5.80;47.80
20866;DHT22;10593;48.398;10.698;2023-03-07T07:24:30;5.80;47.80
20866;DHT22;10593;48.398;10.698;2023-03-07T07:26:56;5.80;47.70
20866;DHT22;10593;48.398;10.698;2023-03-07T07:29:22;5.80;47.70
20866;DHT22;10593;48.398;10.698;2023-03-07T07:31:48;5.80;47.70
20866;DHT22;10593;48.398;10.698;2023-03-07T07:34:14;5.80;47.70
20866;DHT22;10593;48.398;10.698;2023-03-07T07:36:40;5.80;47.70
20866;DHT22;10593;48.398;10.698;2023-03-07T07:39:06;5.80;47.70
20866;DHT22;10593;48.398;10.698;2023-03-07T07:41:33;5.80;47.70
20866;DHT22;10593;48.398;10.698;2023-03-07T07:43:59;5.90;47.80
20866;DHT22;10593;48.398;10.698;2023-03-07T07:46:25;5.90;47.80
20866;DHT22;10593;48.398;10.698;2023-03-07T07:48:53;5.90;47.80
20866;DHT22;10593;48.398;10.698;2023-03-07T07:51:19;5.90;47.80
20866;DHT22;10593;48.398;10.698;2023-03-07T07:53:45;5.90;47.80
20866;DHT22;10593;48.398;10.698;2023-03-07T07:56:11;5.90;47.80
20866;DHT22;10593;48.398;10.698;2023-03-07T07:58:37;5.90;47.80
20866;DHT22;10593;48.398;10.698;2023-03-07T08:01:19;5.90;47.80
20866;DHT22;10593;48.398;10.698;2023-03-07T08:03:47;6.00;47.80
20866;DHT22;10593;48.398;10.698;2023-03-07T08:06:18;6.00;47.90
20866;DHT22;10593;48.398;10.698;2023-03-07T08:08:45;6.00;47.80
20866;DHT22;10593;48.398;10.698;2023-03-07T08:11:12;6.00;47.80
20866;DHT22;10593;48.398;10.698;2023-03-07T08:13:39;6.00;47.90
20866;DHT22;10593;48.398;10.698;2023-03-07T08:16:12;6.00;47.80
20866;DHT22;10593;48.398;10.698;2023-03-07T08:18:40;6.10;47.90
20866;DHT22;10593;48.398;10.698;2023-03-07T08:21:07;6.10;48.00
20866;DHT22;10593;48.398;10.698;2023-03-07T08:23:34;6.10;47.90
20866;DHT22;10593;48.398;10.698;2023-03-07T08:26:05;6.10;47.90
20866;DHT22;10593;48.398;10.698;2023-03-07T08:28:33;6.10;48.00
20866;DHT22;10593;48.398;10.698;2023-03-07T08:31:08;6.10;48.00
20866;DHT22;10593;48.398;10.698;2023-03-07T08:33:42;6.20;48.00
20866;DHT22;10593;48.398;10.698;2023-03-07T08:36:08;6.20;48.00
20866;DHT22;10593;48.398;10.698;2023-03-07T08:38:34;6.20;48.00
20866;DHT22;10593;48.398;10.698;2023-03-07T08:41:04;6.20;48.00
20866;DHT22;10593;48.398;10.698;2023-03-07T08:43:32;6.30;48.10
20866;DHT22;10593;48.398;10.698;2023-03-07T08:46:01;6.30;48.10
20866;DHT22;10593;48.398;10.698;2023-03-07T08:48:26;6.30;48.10
20866;DHT22;10593;48.398;10.698;2023-03-07T08:50:53;6.30;48.10
20866;DHT22;10593;48.398;10.698;2023-03-07T08:53:19;6.40;48.70
20866;DHT22;10593;48.398;10.698;2023-03-07T08:55:45;6.40;48.10
20866;DHT22;10593;48.398;10.698;2023-03-07T08:58:10;6.40;48.10
20866;DHT22;10593;48.398;10.698;2023-03-07T09:00:37;6.50;48.10
20866;DHT22;10593;48.398;10.698;2023-03-07T09:03:04;6.50;48.10
20866;DHT22;10593;48.398;10.698;2023-03-07T09:05:31;6.60;48.10
20866;DHT22;10593;48.398;10.698;2023-03-07T09:07:57;6.60;48.10
20866;DHT22;10593;48.398;10.698;2023-03-07T09:10:23;6.60;48.10
20866;DHT22;10593;48.398;10.698;2023-03-07T09:12:50;6.60;48.00
20866;DHT22;10593;48.398;10.698;2023-03-07T09:15:17;6.70;47.90
20866;DHT22;10593;48.398;10.698;2023-03-07T09:17:42;6.70;47.90
20866;DHT22;10593;48.398;10.698;2023-03-07T09:20:08;6.80;47.90
20866;DHT22;10593;48.398;10.698;2023-03-07T09:22:36;6.80;47.60
20866;DHT22;10593;48.398;10.698;2023-03-07T09:25:02;6.80;47.40
20866;DHT22;10593;48.398;10.698;2023-03-07T09:27:28;6.90;47.30
20866;DHT22;10593;48.398;10.698;2023-03-07T09:29:54;6.90;47.20
20866;DHT22;10593;48.398;10.698;2023-03-07T09:32:20;6.90;47.10
20866;DHT22;10593;48.398;10.698;2023-03-07T09:34:45;7.00;47.00
20866;DHT22;10593;48.398;10.698;2023-03-07T09:37:11;7.00;46.80
20866;DHT22;10593;48.398;10.698;2023-03-07T09:39:37;7.00;46.70
20866;DHT22;10593;48.398;10.698;2023-03-07T09:42:25;7.10;46.60
20866;DHT22;10593;48.398;10.698;2023-03-07T09:45:19;7.10;46.50
20866;DHT22;10593;48.398;10.698;2023-03-07T09:51:20;7.20;46.40
20866;DHT22;10593;48.398;10.698;2023-03-07T09:54:02;7.20;46.40
20866;DHT22;10593;48.398;10.698;2023-03-07T09:56:50;7.20;46.80
20866;DHT22;10593;48.398;10.698;2023-03-07T09:59:41;7.20;45.80
20866;DHT22;10593;48.398;10.698;2023-03-07T10:02:29;7.30;45.70
20866;DHT22;10593;48.398;10.698;2023-03-07T10:07:46;7.30;45.40
20866;DHT22;10593;48.398;10.698;2023-03-07T10:10:17;7.30;45.60
20866;DHT22;10593;48.398;10.698;2023-03-07T10:13:17;7.30;45.30
20866;DHT22;10593;48.398;10.698;2023-03-07T10:15:49;7.40;45.20
20866;DHT22;10593;48.398;10.698;2023-03-07T10:18:38;7.40;45.40
20866;DHT22;10593;48.398;10.698;2023-03-07T10:27:10;7.50;45.00
20866;DHT22;10593;48.398;10.698;2023-03-07T10:29:45;7.50;44.70
20866;DHT22;10593;48.398;10.698;2023-03-07T10:38:02;7.50;44.80
20866;DHT22;10593;48.398;10.698;2023-03-07T10:41:15;7.50;44.50
20866;DHT22;10593;48.398;10.698;2023-03-07T10:43:38;7.50;44.30
20866;DHT22;10593;48.398;10.698;2023-03-07T10:46:14;7.60;44.40
20866;DHT22;10593;48.398;10.698;2023-03-07T10:48:45;7.60;44.20
20866;DHT22;10593;48.398;10.698;2023-03-07T10:51:35;7.60;44.20
20866;DHT22;10593;48.398;10.698;2023-03-07T10:54:14;7.60;44.00
20866;DHT22;10593;48.398;10.698;2023-03-07T10:59:47;7.60;43.50
20866;DHT22;10593;48.398;10.698;2023-03-07T11:02:35;7.60;43.50
20866;DHT22;10593;48.398;10.698;2023-03-07T11:05:28;7.60;43.50
20866;DHT22;10593;48.398;10.698;2023-03-07T11:07:56;7.70;43.50
20866;DHT22;10593;48.398;10.698;2023-03-07T11:10:43;7.70;44.00
20866;DHT22;10593;48.398;10.698;2023-03-07T11:13:17;7.70;43.50
20866;DHT22;10593;48.398;10.698;2023-03-07T11:15:44;7.70;43.50
20866;DHT22;10593;48.398;10.698;2023-03-07T11:18:31;7.80;43.60
20866;DHT22;10593;48.398;10.698;2023-03-07T11:21:03;7.80;43.50
20866;DHT22;10593;48.398;10.698;2023-03-07T11:23:29;7.80;43.70
20866;DHT22;10593;48.398;10.698;2023-03-07T11:26:12;7.80;43.60
20866;DHT22;10593;48.398;10.698;2023-03-07T11:28:45;7.80;43.60
20866;DHT22;10593;48.398;10.698;2023-03-07T11:34:09;7.90;43.60
20866;DHT22;10593;48.398;10.698;2023-03-07T11:43:36;7.90;43.10
20866;DHT22;10593;48.398;10.698;2023-03-07T11:46:37;7.90;42.90
20866;DHT22;10593;48.398;10.698;2023-03-07T11:49:25;8.00;42.90
20866;DHT22;10593;48.398;10.698;2023-03-07T11:52:18;8.00;43.10
20866;DHT22;10593;48.398;10.698;2023-03-07T11:57:58;8.00;43.00
20866;DHT22;10593;48.398;10.698;2023-03-07T12:03:36;8.00;43.10
20866;DHT22;10593;48.398;10.698;2023-03-07T12:06:55;8.00;43.30
20866;DHT22;10593;48.398;10.698;2023-03-07T12:12:58;8.00;42.80
20866;DHT22;10593;48.398;10.698;2023-03-07T12:15:52;8.00;42.60
20866;DHT22;10593;48.398;10.698;2023-03-07T12:24:22;8.10;42.40
20866;DHT22;10593;48.398;10.698;2023-03-07T12:27:13;8.00;42.30
20866;DHT22;10593;48.398;10.698;2023-03-07T12:29:52;8.10;42.60
20866;DHT22;10593;48.398;10.698;2023-03-07T12:32:24;8.10;42.70
20866;DHT22;10593;48.398;10.698;2023-03-07T12:37:45;8.10;42.00
20866;DHT22;10593;48.398;10.698;2023-03-07T12:40:47;8.10;42.10
20866;DHT22;10593;48.398;10.698;2023-03-07T12:43:30;8.20;42.30
20866;DHT22;10593;48.398;10.698;2023-03-07T12:46:11;8.20;42.20
20866;DHT22;10593;48.398;10.698;2023-03-07T12:48:50;8.20;42.20
20866;DHT22;10593;48.398;10.698;2023-03-07T12:51:26;8.20;42.10
20866;DHT22;10593;48.398;10.698;2023-03-07T12:54:02;8.20;41.70
20866;DHT22;10593;48.398;10.698;2023-03-07T12:56:45;8.20;42.00
20866;DHT22;10593;48.398;10.698;2023-03-07T12:59:18;8.30;42.10
20866;DHT22;10593;48.398;10.698;2023-03-07T13:01:51;8.30;42.30
20866;DHT22;10593;48.398;10.698;2023-03-07T13:04:35;8.30;42.10
20866;DHT22;10593;48.398;10.698;2023-03-07T13:07:17;8.30;42.00
20866;DHT22;10593;48.398;10.698;2023-03-07T13:10:05;8.40;42.30
20866;DHT22;10593;48.398;10.698;2023-03-07T13:12:34;8.40;42.40
20866;DHT22;10593;48.398;10.698;2023-03-07T13:15:08;8.40;42.30
20866;DHT22;10593;48.398;10.698;2023-03-07T13:18:03;8.50;42.10
20866;DHT22;10593;48.398;10.698;2023-03-07T13:21:08;8.50;42.10
20866;DHT22;10593;48.398;10.698;2023-03-07T13:27:03;8.50;42.00
20866;DHT22;10593;48.398;10.698;2023-03-07T13:43:00;8.70;42.00
20866;DHT22;10593;48.398;10.698;2023-03-07T13:51:06;8.80;41.40
20866;DHT22;10593;48.398;10.698;2023-03-07T13:53:47;8.80;41.70
20866;DHT22;10593;48.398;10.698;2023-03-07T14:02:12;9.00;41.60
20866;DHT22;10593;48.398;10.698;2023-03-07T14:04:51;9.00;42.10
20866;DHT22;10593;48.398;10.698;2023-03-07T14:07:26;9.10;41.80
20866;DHT22;10593;48.398;10.698;2023-03-07T14:09:57;9.10;41.80
20866;DHT22;10593;48.398;10.698;2023-03-07T14:22:01;9.20;40.70
20866;DHT22;10593;48.398;10.698;2023-03-07T14:27:13;9.20;41.10
20866;DHT22;10593;48.398;10.698;2023-03-07T14:29:51;9.20;40.90
20866;DHT22;10593;48.398;10.698;2023-03-07T14:32:26;9.20;40.60
20866;DHT22;10593;48.398;10.698;2023-03-07T14:34:54;9.30;40.70
20866;DHT22;10593;48.398;10.698;2023-03-07T14:37:27;9.30;40.80
20866;DHT22;10593;48.398;10.698;2023-03-07T14:48:42;9.30;40.50
20866;DHT22;10593;48.398;10.698;2023-03-07T14:51:30;9.40;40.60
20866;DHT22;10593;48.398;10.698;2023-03-07T14:54:11;9.40;40.30
20866;DHT22;10593;48.398;10.698;2023-03-07T14:56:39;9.40;40.50
20866;DHT22;10593;48.398;10.698;2023-03-07T14:59:07;9.40;40.20
20866;DHT22;10593;48.398;10.698;2023-03-07T15:01:38;9.40;40.30
20866;DHT22;10593;48.398;10.698;2023-03-07T15:06:57;9.40;40.20
20866;DHT22;10593;48.398;10.698;2023-03-07T15:09:25;9.40;40.30
20866;DHT22;10593;48.398;10.698;2023-03-07T15:12:00;9.50;40.30
20866;DHT22;10593;48.398;10.698;2023-03-07T15:14:42;9.50;40.20
20866;DHT22;10593;48.398;10.698;2023-03-07T15:17:34;9.50;40.30
20866;DHT22;10593;48.398;10.698;2023-03-07T15:20:28;9.50;40.20
20866;DHT22;10593;48.398;10.698;2023-03-07T15:23:05;9.50;39.90
20866;DHT22;10593;48.398;10.698;2023-03-07T15:25:32;9.50;40.00
20866;DHT22;10593;48.398;10.698;2023-03-07T15:28:18;9.50;40.20
20866;DHT22;10593;48.398;10.698;2023-03-07T15:30:48;9.60;39.80
20866;DHT22;10593;48.398;10.698;2023-03-07T15:35:57;9.50;39.80
20866;DHT22;10593;48.398;10.698;2023-03-07T15:38:31;9.50;39.80
20866;DHT22;10593;48.398;10.698;2023-03-07T15:40:58;9.50;39.70
20866;DHT22;10593;48.398;10.698;2023-03-07T15:43:26;9.50;39.70
20866;DHT22;10593;48.398;10.698;2023-03-07T15:46:02;9.50;39.60
20866;DHT22;10593;48.398;10.698;2023-03-07T15:51:14;9.50;39.60
20866;DHT22;10593;48.398;10.698;2023-03-07T15:53:43;9.50;39.50
20866;DHT22;10593;48.398;10.698;2023-03-07T15:56:31;9.50;39.60
20866;DHT22;10593;48.398;10.698;2023-03-07T15:59:16;9.50;39.30
20866;DHT22;10593;48.398;10.698;2023-03-07T16:01:42;9.50;39.30
20866;DHT22;10593;48.398;10.698;2023-03-07T16:06:59;9.40;39.10
20866;DHT22;10593;48.398;10.698;2023-03-07T16:09:25;9.40;39.20
20866;DHT22;10593;48.398;10.698;2023-03-07T16:11:50;9.40;39.20
20866;DHT22;10593;48.398;10.698;2023-03-07T16:14:25;9.40;39.10
20866;DHT22;10593;48.398;10.698;2023-03-07T16:16:57;9.40;38.90
20866;DHT22;10593;48.398;10.698;2023-03-07T16:19:24;9.40;39.10
20866;DHT22;10593;48.398;10.698;2023-03-07T16:21:50;9.40;39.10
20866;DHT22;10593;48.398;10.698;2023-03-07T16:24:16;9.40;39.00
20866;DHT22;10593;48.398;10.698;2023-03-07T16:26:44;9.40;38.90
20866;DHT22;10593;48.398;10.698;2023-03-07T16:29:16;9.40;38.80
20866;DHT22;10593;48.398;10.698;2023-03-07T16:31:46;9.40;38.70
20866;DHT22;10593;48.398;10.698;2023-03-07T16:34:17;9.30;38.70
20866;DHT22;10593;48.398;10.698;2023-03-07T16:36:44;9.30;38.40
20866;DHT22;10593;48.398;10.698;2023-03-07T16:39:11;9.30;38.50
20866;DHT22;10593;48.398;10.698;2023-03-07T16:41:41;9.30;38.40
20866;DHT22;10593;48.398;10.698;2023-03-07T16:44:17;9.30;38.30
20866;DHT22;10593;48.398;10.698;2023-03-07T16:46:50;9.30;38.10
20866;DHT22;10593;48.398;10.698;2023-03-07T16:49:20;9.20;38.30
20866;DHT22;10593;48.398;10.698;2023-03-07T16:51:46;9.20;38.40
20866;DHT22;10593;48.398;10.698;2023-03-07T16:54:11;9.20;38.40
20866;DHT22;10593;48.398;10.698;2023-03-07T16:56:40;9.20;38.50
20866;DHT22;10593;48.398;10.698;2023-03-07T16:59:15;9.20;38.50
20866;DHT22;10593;48.398;10.698;2023-03-07T17:01:45;9.20;38.60
20866;DHT22;10593;48.398;10.698;2023-03-07T17:04:13;9.20;38.60
20866;DHT22;10593;48.398;10.698;2023-03-07T17:06:39;9.10;38.60
20866;DHT22;10593;48.398;10.698;2023-03-07T17:09:10;9.10;38.70
20866;DHT22;10593;48.398;10.698;2023-03-07T17:11:45;9.10;38.70
20866;DHT22;10593;48.398;10.698;2023-03-07T17:14:14;9.10;38.70
20866;DHT22;10593;48.398;10.698;2023-03-07T17:16:44;9.00;38.70
20866;DHT22;10593;48.398;10.698;2023-03-07T17:19:29;9.00;38.80
20866;DHT22;10593;48.398;10.698;2023-03-07T17:21:57;9.00;38.80
20866;DHT22;10593;48.398;10.698;2023-03-07T17:24:26;9.00;39.40
20866;DHT22;10593;48.398;10.698;2023-03-07T17:26:54;8.90;38.70
20866;DHT22;10593;48.398;10.698;2023-03-07T17:29:24;8.90;38.70
20866;DHT22;10593;48.398;10.698;2023-03-07T17:31:54;8.90;38.70
20866;DHT22;10593;48.398;10.698;2023-03-07T17:34:25;8.90;38.70
20866;DHT22;10593;48.398;10.698;2023-03-07T17:36:52;8.90;38.60
20866;DHT22;10593;48.398;10.698;2023-03-07T17:39:19;8.90;38.70
20866;DHT22;10593;48.398;10.698;2023-03-07T17:41:45;8.80;38.60
20866;DHT22;10593;48.398;10.698;2023-03-07T17:44:11;8.80;38.60